sensor_id;sensor_type;location;lat;lon;timestamp;P1;durP1;ratioP1;P2;durP2;ratioP2
56242;SDS011;42155;53.096;23.226;2022-12-29T00:01:46;18.40;;;8.30;;
56242;SDS011;42155;53.096;23.226;2022-12-29T00:03:46;17.50;;;8.48;;
56242;SDS011;42155;53.096;23.226;2022-12-29T00:05:53;19.92;;;9.32;;
56242;SDS011;42155;53.096;23.226;2022-12-29T00:07:55;19.85;;;9.20;;
56242;SDS011;42155;53.096;23.226;2022-12-29T00:09:55;26.23;;;9.65;;
56242;SDS011;42155;53.096;23.226;2022-12-29T00:11:56;21.95;;;9.55;;
56242;SDS011;42155;53.096;23.226;2022-12-29T00:13:56;20.08;;;9.40;;
56242;SDS011;42155;53.096;23.226;2022-12-29T00:15:57;18.67;;;8.90;;
56242;SDS011;42155;53.096;23.226;2022-12-29T00:17:57;16.88;;;8.32;;
56242;SDS011;42155;53.096;23.226;2022-12-29T00:19:57;20.23;;;8.90;;
56242;SDS011;42155;53.096;23.226;2022-12-29T00:21:58;20.17;;;9.55;;
56242;SDS011;42155;53.096;23.226;2022-12-29T00:23:58;24.08;;;9.52;;
56242;SDS011;42155;53.096;23.226;2022-12-29T00:26:02;21.00;;;9.10;;
56242;SDS011;42155;53.096;23.226;2022-12-29T00:28:04;22.70;;;9.45;;
56242;SDS011;42155;53.096;23.226;2022-12-29T00:30:15;21.65;;;9.45;;
56242;SDS011;42155;53.096;23.226;2022-12-29T00:32:17;22.17;;;9.55;;
56242;SDS011;42155;53.096;23.226;2022-12-29T00:34:18;20.08;;;9.10;;
56242;SDS011;42155;53.096;23.226;2022-12-29T00:38:21;25.92;;;10.30;;
56242;SDS011;42155;53.096;23.226;2022-12-29T00:40:22;18.20;;;8.90;;
56242;SDS011;42155;53.096;23.226;2022-12-29T00:42:22;22.88;;;9.70;;
56242;SDS011;42155;53.096;23.226;2022-12-29T00:44:22;21.83;;;9.15;;
56242;SDS011;42155;53.096;23.226;2022-12-29T00:46:23;19.92;;;9.43;;
56242;SDS011;42155;53.096;23.226;2022-12-29T00:48:23;18.25;;;8.70;;
56242;SDS011;42155;53.096;23.226;2022-12-29T00:50:23;18.00;;;8.32;;
56242;SDS011;42155;53.096;23.226;2022-12-29T00:52:24;18.27;;;8.80;;
56242;SDS011;42155;53.096;23.226;2022-12-29T00:54:24;20.55;;;9.43;;
56242;SDS011;42155;53.096;23.226;2022-12-29T00:56:25;21.00;;;9.20;;
56242;SDS011;42155;53.096;23.226;2022-12-29T00:58:28;15.73;;;8.40;;
56242;SDS011;42155;53.096;23.226;2022-12-29T01:00:30;17.55;;;9.02;;
56242;SDS011;42155;53.096;23.226;2022-12-29T01:02:30;19.10;;;8.73;;
56242;SDS011;42155;53.096;23.226;2022-12-29T01:04:30;18.80;;;9.55;;
56242;SDS011;42155;53.096;23.226;2022-12-29T01:06:31;21.65;;;9.85;;
56242;SDS011;42155;53.096;23.226;2022-12-29T01:08:32;20.25;;;9.18;;
56242;SDS011;42155;53.096;23.226;2022-12-29T01:10:32;20.50;;;9.13;;
56242;SDS011;42155;53.096;23.226;2022-12-29T01:12:33;18.63;;;8.80;;
56242;SDS011;42155;53.096;23.226;2022-12-29T01:14:34;18.60;;;9.15;;
56242;SDS011;42155;53.096;23.226;2022-12-29T01:16:35;19.65;;;8.68;;
56242;SDS011;42155;53.096;23.226;2022-12-29T01:18:35;18.75;;;9.57;;
56242;SDS011;42155;53.096;23.226;2022-12-29T01:20:36;20.48;;;10.27;;
56242;SDS011;42155;53.096;23.226;2022-12-29T01:22:36;20.15;;;9.77;;
56242;SDS011;42155;53.096;23.226;2022-12-29T01:24:37;22.33;;;10.52;;
56242;SDS011;42155;53.096;23.226;2022-12-29T01:26:37;22.13;;;10.77;;
56242;SDS011;42155;53.096;23.226;2022-12-29T01:28:37;22.52;;;10.13;;
56242;SDS011;42155;53.096;23.226;2022-12-29T01:30:38;21.75;;;9.68;;
56242;SDS011;42155;53.096;23.226;2022-12-29T01:32:38;21.33;;;10.40;;
56242;SDS011;42155;53.096;23.226;2022-12-29T01:34:38;23.77;;;10.93;;
56242;SDS011;42155;53.096;23.226;2022-12-29T01:36:39;23.05;;;10.45;;
56242;SDS011;42155;53.096;23.226;2022-12-29T01:38:39;18.33;;;10.00;;
56242;SDS011;42155;53.096;23.226;2022-12-29T01:40:44;20.23;;;10.27;;
56242;SDS011;42155;53.096;23.226;2022-12-29T01:42:45;24.92;;;11.80;;
56242;SDS011;42155;53.096;23.226;2022-12-29T01:44:53;20.23;;;11.02;;
56242;SDS011;42155;53.096;23.226;2022-12-29T01:51:16;17.70;;;10.07;;
56242;SDS011;42155;53.096;23.226;2022-12-29T01:53:19;19.13;;;10.27;;
56242;SDS011;42155;53.096;23.226;2022-12-29T01:55:23;22.45;;;10.77;;
56242;SDS011;42155;53.096;23.226;2022-12-29T01:57:33;26.55;;;10.95;;
56242;SDS011;42155;53.096;23.226;2022-12-29T01:59:39;24.73;;;11.82;;
56242;SDS011;42155;53.096;23.226;2022-12-29T02:01:45;25.23;;;11.57;;
56242;SDS011;42155;53.096;23.226;2022-12-29T02:03:46;25.42;;;10.98;;
56242;SDS011;42155;53.096;23.226;2022-12-29T02:05:52;22.65;;;11.68;;
56242;SDS011;42155;53.096;23.226;2022-12-29T02:08:13;23.38;;;12.05;;
56242;SDS011;42155;53.096;23.226;2022-12-29T02:10:14;23.45;;;10.57;;
56242;SDS011;42155;53.096;23.226;2022-12-29T02:12:16;25.63;;;11.02;;
56242;SDS011;42155;53.096;23.226;2022-12-29T02:14:19;24.88;;;10.85;;
56242;SDS011;42155;53.096;23.226;2022-12-29T02:23:50;22.23;;;11.05;;
56242;SDS011;42155;53.096;23.226;2022-12-29T02:29:26;22.25;;;10.63;;
56242;SDS011;42155;53.096;23.226;2022-12-29T02:38:48;19.83;;;9.88;;
56242;SDS011;42155;53.096;23.226;2022-12-29T02:41:03;22.38;;;11.05;;
56242;SDS011;42155;53.096;23.226;2022-12-29T02:50:03;21.00;;;10.90;;
56242;SDS011;42155;53.096;23.226;2022-12-29T02:52:14;20.85;;;10.63;;
56242;SDS011;42155;53.096;23.226;2022-12-29T02:54:20;23.42;;;10.68;;
56242;SDS011;42155;53.096;23.226;2022-12-29T02:56:21;21.63;;;10.00;;
56242;SDS011;42155;53.096;23.226;2022-12-29T02:58:22;21.05;;;9.77;;
56242;SDS011;42155;53.096;23.226;2022-12-29T03:00:23;20.60;;;9.80;;
56242;SDS011;42155;53.096;23.226;2022-12-29T03:02:58;20.17;;;9.85;;
56242;SDS011;42155;53.096;23.226;2022-12-29T03:12:24;23.15;;;9.88;;
56242;SDS011;42155;53.096;23.226;2022-12-29T03:14:24;19.08;;;10.00;;
56242;SDS011;42155;53.096;23.226;2022-12-29T03:16:46;20.35;;;10.55;;
56242;SDS011;42155;53.096;23.226;2022-12-29T03:21:02;19.38;;;10.20;;
56242;SDS011;42155;53.096;23.226;2022-12-29T03:23:04;19.95;;;9.40;;
56242;SDS011;42155;53.096;23.226;2022-12-29T03:25:52;23.15;;;11.10;;
56242;SDS011;42155;53.096;23.226;2022-12-29T03:27:33;18.80;;;9.30;;
56242;SDS011;42155;53.096;23.226;2022-12-29T03:29:40;22.42;;;9.80;;
56242;SDS011;42155;53.096;23.226;2022-12-29T03:31:44;19.92;;;8.43;;
56242;SDS011;42155;53.096;23.226;2022-12-29T03:33:48;21.38;;;9.20;;
56242;SDS011;42155;53.096;23.226;2022-12-29T03:35:49;19.27;;;9.40;;
56242;SDS011;42155;53.096;23.226;2022-12-29T03:40:17;22.02;;;9.27;;
56242;SDS011;42155;53.096;23.226;2022-12-29T03:42:21;16.15;;;8.10;;
56242;SDS011;42155;53.096;23.226;2022-12-29T03:44:58;20.73;;;9.63;;
56242;SDS011;42155;53.096;23.226;2022-12-29T03:46:54;20.50;;;9.23;;
56242;SDS011;42155;53.096;23.226;2022-12-29T03:48:54;19.70;;;8.80;;
56242;SDS011;42155;53.096;23.226;2022-12-29T03:50:54;18.67;;;9.18;;
56242;SDS011;42155;53.096;23.226;2022-12-29T03:52:54;21.65;;;10.48;;
56242;SDS011;42155;53.096;23.226;2022-12-29T03:54:55;24.38;;;9.63;;
56242;SDS011;42155;53.096;23.226;2022-12-29T03:56:55;21.58;;;9.93;;
56242;SDS011;42155;53.096;23.226;2022-12-29T03:58:56;22.38;;;10.13;;
56242;SDS011;42155;53.096;23.226;2022-12-29T04:00:56;22.98;;;9.50;;
56242;SDS011;42155;53.096;23.226;2022-12-29T04:02:57;22.02;;;9.98;;
56242;SDS011;42155;53.096;23.226;2022-12-29T04:04:57;21.83;;;10.27;;
56242;SDS011;42155;53.096;23.226;2022-12-29T04:06:57;21.42;;;10.20;;
56242;SDS011;42155;53.096;23.226;2022-12-29T04:08:58;19.45;;;9.00;;
56242;SDS011;42155;53.096;23.226;2022-12-29T04:10:58;20.27;;;9.75;;
56242;SDS011;42155;53.096;23.226;2022-12-29T04:12:59;21.67;;;10.65;;
56242;SDS011;42155;53.096;23.226;2022-12-29T04:14:59;21.85;;;9.80;;
56242;SDS011;42155;53.096;23.226;2022-12-29T04:16:59;21.52;;;9.77;;
56242;SDS011;42155;53.096;23.226;2022-12-29T04:19:00;19.77;;;9.85;;
56242;SDS011;42155;53.096;23.226;2022-12-29T04:21:00;21.08;;;10.45;;
56242;SDS011;42155;53.096;23.226;2022-12-29T04:23:01;22.10;;;10.93;;
56242;SDS011;42155;53.096;23.226;2022-12-29T04:25:03;23.67;;;11.88;;
56242;SDS011;42155;53.096;23.226;2022-12-29T04:27:03;25.80;;;10.43;;
56242;SDS011;42155;53.096;23.226;2022-12-29T04:29:03;22.58;;;11.18;;
56242;SDS011;42155;53.096;23.226;2022-12-29T04:31:04;25.63;;;10.50;;
56242;SDS011;42155;53.096;23.226;2022-12-29T04:33:05;22.77;;;11.35;;
56242;SDS011;42155;53.096;23.226;2022-12-29T04:35:05;25.52;;;12.00;;
56242;SDS011;42155;53.096;23.226;2022-12-29T04:37:05;28.48;;;11.82;;
56242;SDS011;42155;53.096;23.226;2022-12-29T04:39:06;21.48;;;10.93;;
56242;SDS011;42155;53.096;23.226;2022-12-29T04:41:07;26.63;;;11.27;;
56242;SDS011;42155;53.096;23.226;2022-12-29T04:43:07;25.52;;;11.25;;
56242;SDS011;42155;53.096;23.226;2022-12-29T04:45:08;31.30;;;12.52;;
56242;SDS011;42155;53.096;23.226;2022-12-29T04:47:08;23.27;;;10.93;;
56242;SDS011;42155;53.096;23.226;2022-12-29T04:49:09;26.85;;;12.52;;
56242;SDS011;42155;53.096;23.226;2022-12-29T04:51:09;23.90;;;11.25;;
56242;SDS011;42155;53.096;23.226;2022-12-29T04:53:09;22.27;;;11.20;;
56242;SDS011;42155;53.096;23.226;2022-12-29T04:55:10;20.95;;;10.48;;
56242;SDS011;42155;53.096;23.226;2022-12-29T04:57:10;24.77;;;11.40;;
56242;SDS011;42155;53.096;23.226;2022-12-29T04:59:10;24.92;;;10.32;;
56242;SDS011;42155;53.096;23.226;2022-12-29T05:01:11;25.63;;;12.00;;
56242;SDS011;42155;53.096;23.226;2022-12-29T05:03:11;24.23;;;11.10;;
56242;SDS011;42155;53.096;23.226;2022-12-29T05:05:11;28.70;;;12.02;;
56242;SDS011;42155;53.096;23.226;2022-12-29T05:07:12;28.67;;;11.50;;
56242;SDS011;42155;53.096;23.226;2022-12-29T05:09:12;25.17;;;10.65;;
56242;SDS011;42155;53.096;23.226;2022-12-29T05:11:13;22.17;;;10.10;;
56242;SDS011;42155;53.096;23.226;2022-12-29T05:13:13;24.15;;;10.27;;
56242;SDS011;42155;53.096;23.226;2022-12-29T05:15:13;20.80;;;10.05;;
56242;SDS011;42155;53.096;23.226;2022-12-29T05:17:14;25.73;;;10.02;;
56242;SDS011;42155;53.096;23.226;2022-12-29T05:19:14;18.48;;;9.73;;
56242;SDS011;42155;53.096;23.226;2022-12-29T05:21:14;22.48;;;9.82;;
56242;SDS011;42155;53.096;23.226;2022-12-29T05:23:15;21.65;;;10.02;;
56242;SDS011;42155;53.096;23.226;2022-12-29T05:25:15;22.80;;;10.27;;
56242;SDS011;42155;53.096;23.226;2022-12-29T05:27:15;19.67;;;9.23;;
56242;SDS011;42155;53.096;23.226;2022-12-29T05:29:16;20.33;;;10.23;;
56242;SDS011;42155;53.096;23.226;2022-12-29T05:31:16;24.13;;;9.90;;
56242;SDS011;42155;53.096;23.226;2022-12-29T05:33:17;21.08;;;10.23;;
56242;SDS011;42155;53.096;23.226;2022-12-29T05:35:18;20.63;;;9.73;;
56242;SDS011;42155;53.096;23.226;2022-12-29T05:37:19;21.48;;;10.90;;
56242;SDS011;42155;53.096;23.226;2022-12-29T05:39:19;19.17;;;9.60;;
56242;SDS011;42155;53.096;23.226;2022-12-29T05:41:19;17.85;;;9.38;;
56242;SDS011;42155;53.096;23.226;2022-12-29T05:43:20;23.65;;;9.93;;
56242;SDS011;42155;53.096;23.226;2022-12-29T05:45:20;22.95;;;9.55;;
56242;SDS011;42155;53.096;23.226;2022-12-29T05:47:20;20.05;;;9.80;;
56242;SDS011;42155;53.096;23.226;2022-12-29T05:49:24;22.23;;;10.13;;
56242;SDS011;42155;53.096;23.226;2022-12-29T05:51:24;24.55;;;10.70;;
56242;SDS011;42155;53.096;23.226;2022-12-29T05:53:25;24.45;;;9.52;;
56242;SDS011;42155;53.096;23.226;2022-12-29T05:55:25;26.10;;;10.77;;
56242;SDS011;42155;53.096;23.226;2022-12-29T05:57:25;22.48;;;10.23;;
56242;SDS011;42155;53.096;23.226;2022-12-29T05:59:26;22.98;;;10.27;;
56242;SDS011;42155;53.096;23.226;2022-12-29T06:01:26;22.30;;;10.00;;
56242;SDS011;42155;53.096;23.226;2022-12-29T06:03:26;19.42;;;9.75;;
56242;SDS011;42155;53.096;23.226;2022-12-29T06:05:27;22.90;;;10.43;;
56242;SDS011;42155;53.096;23.226;2022-12-29T06:07:27;21.95;;;9.88;;
56242;SDS011;42155;53.096;23.226;2022-12-29T06:09:27;21.80;;;9.73;;
56242;SDS011;42155;53.096;23.226;2022-12-29T06:11:28;23.63;;;10.90;;
56242;SDS011;42155;53.096;23.226;2022-12-29T06:13:28;20.60;;;10.05;;
56242;SDS011;42155;53.096;23.226;2022-12-29T06:15:28;21.02;;;10.27;;
56242;SDS011;42155;53.096;23.226;2022-12-29T06:17:29;20.85;;;10.57;;
56242;SDS011;42155;53.096;23.226;2022-12-29T06:19:29;25.63;;;10.15;;
56242;SDS011;42155;53.096;23.226;2022-12-29T06:21:29;20.27;;;9.77;;
56242;SDS011;42155;53.096;23.226;2022-12-29T06:23:30;22.38;;;10.75;;
56242;SDS011;42155;53.096;23.226;2022-12-29T06:25:30;23.88;;;11.20;;
56242;SDS011;42155;53.096;23.226;2022-12-29T06:27:30;23.63;;;9.90;;
56242;SDS011;42155;53.096;23.226;2022-12-29T06:29:31;20.10;;;10.43;;
56242;SDS011;42155;53.096;23.226;2022-12-29T06:31:32;20.33;;;10.27;;
56242;SDS011;42155;53.096;23.226;2022-12-29T06:33:32;20.17;;;9.93;;
56242;SDS011;42155;53.096;23.226;2022-12-29T06:35:32;21.10;;;11.13;;
56242;SDS011;42155;53.096;23.226;2022-12-29T06:37:33;25.95;;;11.65;;
56242;SDS011;42155;53.096;23.226;2022-12-29T06:39:33;31.13;;;13.60;;
56242;SDS011;42155;53.096;23.226;2022-12-29T06:41:33;27.27;;;11.75;;
56242;SDS011;42155;53.096;23.226;2022-12-29T06:43:34;32.05;;;13.90;;
56242;SDS011;42155;53.096;23.226;2022-12-29T06:45:34;35.42;;;15.25;;
56242;SDS011;42155;53.096;23.226;2022-12-29T06:47:34;20.65;;;11.10;;
56242;SDS011;42155;53.096;23.226;2022-12-29T06:49:35;25.17;;;12.75;;
56242;SDS011;42155;53.096;23.226;2022-12-29T06:51:36;22.70;;;12.00;;
56242;SDS011;42155;53.096;23.226;2022-12-29T06:53:36;22.67;;;11.88;;
56242;SDS011;42155;53.096;23.226;2022-12-29T06:55:36;24.98;;;10.82;;
56242;SDS011;42155;53.096;23.226;2022-12-29T06:57:37;24.38;;;11.60;;
56242;SDS011;42155;53.096;23.226;2022-12-29T06:59:37;19.92;;;10.25;;
56242;SDS011;42155;53.096;23.226;2022-12-29T07:01:37;21.67;;;10.75;;
56242;SDS011;42155;53.096;23.226;2022-12-29T07:03:40;26.05;;;10.82;;
56242;SDS011;42155;53.096;23.226;2022-12-29T07:05:41;21.88;;;9.63;;
56242;SDS011;42155;53.096;23.226;2022-12-29T07:07:41;23.15;;;10.65;;
56242;SDS011;42155;53.096;23.226;2022-12-29T07:09:42;19.75;;;10.10;;
56242;SDS011;42155;53.096;23.226;2022-12-29T07:11:42;22.13;;;10.05;;
56242;SDS011;42155;53.096;23.226;2022-12-29T07:13:42;20.95;;;10.23;;
56242;SDS011;42155;53.096;23.226;2022-12-29T07:15:43;20.05;;;9.88;;
56242;SDS011;42155;53.096;23.226;2022-12-29T07:17:43;24.85;;;9.75;;
56242;SDS011;42155;53.096;23.226;2022-12-29T07:19:43;18.30;;;8.95;;
56242;SDS011;42155;53.096;23.226;2022-12-29T07:21:44;20.75;;;10.00;;
56242;SDS011;42155;53.096;23.226;2022-12-29T07:23:44;21.73;;;11.35;;
56242;SDS011;42155;53.096;23.226;2022-12-29T07:25:45;21.17;;;10.60;;
56242;SDS011;42155;53.096;23.226;2022-12-29T07:27:45;26.95;;;11.52;;
56242;SDS011;42155;53.096;23.226;2022-12-29T07:29:45;22.77;;;11.35;;
56242;SDS011;42155;53.096;23.226;2022-12-29T07:31:46;25.40;;;11.50;;
56242;SDS011;42155;53.096;23.226;2022-12-29T07:33:46;25.20;;;10.88;;
56242;SDS011;42155;53.096;23.226;2022-12-29T07:35:47;28.25;;;13.00;;
56242;SDS011;42155;53.096;23.226;2022-12-29T07:37:47;33.47;;;14.45;;
56242;SDS011;42155;53.096;23.226;2022-12-29T07:39:48;32.00;;;13.38;;
56242;SDS011;42155;53.096;23.226;2022-12-29T07:41:48;26.23;;;12.10;;
56242;SDS011;42155;53.096;23.226;2022-12-29T07:43:48;25.73;;;11.95;;
56242;SDS011;42155;53.096;23.226;2022-12-29T07:45:48;22.30;;;11.43;;
56242;SDS011;42155;53.096;23.226;2022-12-29T07:47:49;25.00;;;11.73;;
56242;SDS011;42155;53.096;23.226;2022-12-29T07:49:50;20.45;;;9.98;;
56242;SDS011;42155;53.096;23.226;2022-12-29T07:51:50;22.58;;;10.32;;
56242;SDS011;42155;53.096;23.226;2022-12-29T07:53:50;18.95;;;8.95;;
56242;SDS011;42155;53.096;23.226;2022-12-29T07:55:51;19.05;;;9.13;;
56242;SDS011;42155;53.096;23.226;2022-12-29T07:57:54;18.58;;;9.20;;
56242;SDS011;42155;53.096;23.226;2022-12-29T07:59:59;17.05;;;8.48;;
56242;SDS011;42155;53.096;23.226;2022-12-29T08:01:59;20.83;;;9.23;;
56242;SDS011;42155;53.096;23.226;2022-12-29T08:04:00;17.58;;;8.82;;
56242;SDS011;42155;53.096;23.226;2022-12-29T08:06:01;16.08;;;8.70;;
56242;SDS011;42155;53.096;23.226;2022-12-29T08:08:01;21.55;;;8.52;;
56242;SDS011;42155;53.096;23.226;2022-12-29T08:10:02;21.23;;;9.20;;
56242;SDS011;42155;53.096;23.226;2022-12-29T08:12:03;18.38;;;9.23;;
56242;SDS011;42155;53.096;23.226;2022-12-29T08:14:03;20.33;;;9.27;;
56242;SDS011;42155;53.096;23.226;2022-12-29T08:16:03;16.75;;;8.80;;
56242;SDS011;42155;53.096;23.226;2022-12-29T08:18:04;19.85;;;8.82;;
56242;SDS011;42155;53.096;23.226;2022-12-29T08:20:05;16.02;;;8.18;;
56242;SDS011;42155;53.096;23.226;2022-12-29T08:22:06;22.52;;;8.52;;
56242;SDS011;42155;53.096;23.226;2022-12-29T08:24:07;20.02;;;8.88;;
56242;SDS011;42155;53.096;23.226;2022-12-29T08:26:09;17.38;;;8.43;;
56242;SDS011;42155;53.096;23.226;2022-12-29T08:28:09;20.23;;;8.95;;
56242;SDS011;42155;53.096;23.226;2022-12-29T08:30:10;16.98;;;8.50;;
56242;SDS011;42155;53.096;23.226;2022-12-29T08:32:11;16.58;;;8.35;;
56242;SDS011;42155;53.096;23.226;2022-12-29T08:34:11;20.70;;;9.18;;
56242;SDS011;42155;53.096;23.226;2022-12-29T08:36:12;21.88;;;10.38;;
56242;SDS011;42155;53.096;23.226;2022-12-29T08:38:12;23.35;;;9.88;;
56242;SDS011;42155;53.096;23.226;2022-12-29T08:40:12;18.23;;;9.40;;
56242;SDS011;42155;53.096;23.226;2022-12-29T08:42:13;18.10;;;9.23;;
56242;SDS011;42155;53.096;23.226;2022-12-29T08:44:13;18.05;;;9.43;;
56242;SDS011;42155;53.096;23.226;2022-12-29T08:46:14;20.73;;;9.82;;
56242;SDS011;42155;53.096;23.226;2022-12-29T08:48:15;17.05;;;9.05;;
56242;SDS011;42155;53.096;23.226;2022-12-29T08:50:16;22.02;;;10.98;;
56242;SDS011;42155;53.096;23.226;2022-12-29T08:52:16;20.55;;;9.48;;
56242;SDS011;42155;53.096;23.226;2022-12-29T08:54:17;20.00;;;9.45;;
56242;SDS011;42155;53.096;23.226;2022-12-29T08:56:17;20.02;;;9.02;;
56242;SDS011;42155;53.096;23.226;2022-12-29T08:58:17;19.02;;;9.40;;
56242;SDS011;42155;53.096;23.226;2022-12-29T09:00:18;20.20;;;9.93;;
56242;SDS011;42155;53.096;23.226;2022-12-29T09:02:18;17.50;;;9.07;;
56242;SDS011;42155;53.096;23.226;2022-12-29T09:04:19;18.95;;;9.60;;
56242;SDS011;42155;53.096;23.226;2022-12-29T09:06:19;20.05;;;9.73;;
56242;SDS011;42155;53.096;23.226;2022-12-29T09:08:20;17.67;;;8.45;;
56242;SDS011;42155;53.096;23.226;2022-12-29T09:10:21;19.42;;;9.52;;
56242;SDS011;42155;53.096;23.226;2022-12-29T09:12:22;22.33;;;10.43;;
56242;SDS011;42155;53.096;23.226;2022-12-29T09:14:22;41.83;;;16.33;;
56242;SDS011;42155;53.096;23.226;2022-12-29T09:16:23;26.88;;;11.48;;
56242;SDS011;42155;53.096;23.226;2022-12-29T09:18:24;23.83;;;11.18;;
56242;SDS011;42155;53.096;23.226;2022-12-29T09:20:24;27.80;;;11.48;;
56242;SDS011;42155;53.096;23.226;2022-12-29T09:22:25;22.08;;;10.27;;
56242;SDS011;42155;53.096;23.226;2022-12-29T09:24:25;31.50;;;13.25;;
56242;SDS011;42155;53.096;23.226;2022-12-29T09:26:25;35.05;;;14.18;;
56242;SDS011;42155;53.096;23.226;2022-12-29T09:28:26;19.85;;;9.30;;
56242;SDS011;42155;53.096;23.226;2022-12-29T09:30:26;20.85;;;10.18;;
56242;SDS011;42155;53.096;23.226;2022-12-29T09:32:27;21.15;;;10.13;;
56242;SDS011;42155;53.096;23.226;2022-12-29T09:34:27;17.30;;;8.57;;
56242;SDS011;42155;53.096;23.226;2022-12-29T09:36:27;19.15;;;9.73;;
56242;SDS011;42155;53.096;23.226;2022-12-29T09:38:28;20.52;;;9.30;;
56242;SDS011;42155;53.096;23.226;2022-12-29T09:40:32;15.55;;;8.60;;
56242;SDS011;42155;53.096;23.226;2022-12-29T09:47:13;17.38;;;8.68;;
56242;SDS011;42155;53.096;23.226;2022-12-29T09:51:34;23.13;;;10.38;;
56242;SDS011;42155;53.096;23.226;2022-12-29T09:53:38;20.63;;;10.32;;
56242;SDS011;42155;53.096;23.226;2022-12-29T09:55:43;18.65;;;9.35;;
56242;SDS011;42155;53.096;23.226;2022-12-29T09:57:54;22.13;;;10.98;;
56242;SDS011;42155;53.096;23.226;2022-12-29T10:00:03;25.35;;;10.95;;
56242;SDS011;42155;53.096;23.226;2022-12-29T10:02:29;19.40;;;10.75;;
56242;SDS011;42155;53.096;23.226;2022-12-29T10:04:35;22.48;;;9.27;;
56242;SDS011;42155;53.096;23.226;2022-12-29T10:20:47;23.25;;;9.98;;
56242;SDS011;42155;53.096;23.226;2022-12-29T10:22:59;21.52;;;10.80;;
56242;SDS011;42155;53.096;23.226;2022-12-29T10:25:11;19.25;;;9.70;;
56242;SDS011;42155;53.096;23.226;2022-12-29T10:27:16;19.65;;;9.55;;
56242;SDS011;42155;53.096;23.226;2022-12-29T10:29:24;19.35;;;10.02;;
56242;SDS011;42155;53.096;23.226;2022-12-29T10:31:33;18.58;;;9.40;;
56242;SDS011;42155;53.096;23.226;2022-12-29T10:33:39;15.88;;;8.82;;
56242;SDS011;42155;53.096;23.226;2022-12-29T10:35:41;18.23;;;9.15;;
56242;SDS011;42155;53.096;23.226;2022-12-29T10:39:46;14.27;;;7.93;;
56242;SDS011;42155;53.096;23.226;2022-12-29T10:44:12;17.88;;;8.73;;
56242;SDS011;42155;53.096;23.226;2022-12-29T10:46:17;18.65;;;8.68;;
56242;SDS011;42155;53.096;23.226;2022-12-29T10:48:25;18.75;;;9.52;;
56242;SDS011;42155;53.096;23.226;2022-12-29T10:50:30;17.15;;;8.57;;
56242;SDS011;42155;53.096;23.226;2022-12-29T10:52:31;16.73;;;8.85;;
56242;SDS011;42155;53.096;23.226;2022-12-29T10:54:35;15.85;;;8.20;;
56242;SDS011;42155;53.096;23.226;2022-12-29T10:56:54;20.35;;;8.60;;
56242;SDS011;42155;53.096;23.226;2022-12-29T10:59:02;15.90;;;8.27;;
56242;SDS011;42155;53.096;23.226;2022-12-29T11:01:11;22.17;;;9.55;;
56242;SDS011;42155;53.096;23.226;2022-12-29T11:07:27;19.17;;;8.90;;
56242;SDS011;42155;53.096;23.226;2022-12-29T11:09:29;16.27;;;8.35;;
56242;SDS011;42155;53.096;23.226;2022-12-29T11:11:33;15.18;;;8.07;;
56242;SDS011;42155;53.096;23.226;2022-12-29T11:13:46;21.20;;;8.73;;
56242;SDS011;42155;53.096;23.226;2022-12-29T11:15:49;15.13;;;7.80;;
56242;SDS011;42155;53.096;23.226;2022-12-29T11:17:52;15.40;;;7.25;;
56242;SDS011;42155;53.096;23.226;2022-12-29T11:19:55;14.27;;;7.57;;
56242;SDS011;42155;53.096;23.226;2022-12-29T11:22:12;14.85;;;7.90;;
56242;SDS011;42155;53.096;23.226;2022-12-29T11:24:20;15.70;;;6.97;;
56242;SDS011;42155;53.096;23.226;2022-12-29T11:26:25;13.05;;;7.47;;
56242;SDS011;42155;53.096;23.226;2022-12-29T11:28:27;16.60;;;7.88;;
56242;SDS011;42155;53.096;23.226;2022-12-29T11:30:28;14.73;;;7.53;;
56242;SDS011;42155;53.096;23.226;2022-12-29T11:32:30;18.05;;;7.90;;
56242;SDS011;42155;53.096;23.226;2022-12-29T11:34:32;14.93;;;7.32;;
56242;SDS011;42155;53.096;23.226;2022-12-29T11:36:34;21.05;;;9.02;;
56242;SDS011;42155;53.096;23.226;2022-12-29T11:38:38;19.83;;;8.60;;
56242;SDS011;42155;53.096;23.226;2022-12-29T11:40:40;38.13;;;13.82;;
56242;SDS011;42155;53.096;23.226;2022-12-29T11:42:41;28.88;;;10.70;;
56242;SDS011;42155;53.096;23.226;2022-12-29T11:44:48;21.10;;;9.25;;
56242;SDS011;42155;53.096;23.226;2022-12-29T11:46:51;38.15;;;13.50;;
56242;SDS011;42155;53.096;23.226;2022-12-29T11:48:52;31.42;;;11.93;;
56242;SDS011;42155;53.096;23.226;2022-12-29T11:50:53;32.38;;;11.68;;
56242;SDS011;42155;53.096;23.226;2022-12-29T11:52:58;21.90;;;9.25;;
56242;SDS011;42155;53.096;23.226;2022-12-29T11:55:20;23.92;;;10.00;;
56242;SDS011;42155;53.096;23.226;2022-12-29T11:57:23;25.85;;;10.05;;
56242;SDS011;42155;53.096;23.226;2022-12-29T12:01:33;28.75;;;11.55;;
56242;SDS011;42155;53.096;23.226;2022-12-29T12:03:38;25.00;;;10.88;;
56242;SDS011;42155;53.096;23.226;2022-12-29T12:06:07;28.58;;;10.63;;
56242;SDS011;42155;53.096;23.226;2022-12-29T12:10:19;36.88;;;13.55;;
56242;SDS011;42155;53.096;23.226;2022-12-29T12:12:30;23.25;;;9.38;;
56242;SDS011;42155;53.096;23.226;2022-12-29T12:14:38;22.33;;;10.07;;
56242;SDS011;42155;53.096;23.226;2022-12-29T12:16:47;18.00;;;8.48;;
56242;SDS011;42155;53.096;23.226;2022-12-29T12:19:00;17.13;;;8.85;;
56242;SDS011;42155;53.096;23.226;2022-12-29T12:21:05;14.87;;;8.57;;
56242;SDS011;42155;53.096;23.226;2022-12-29T12:23:46;15.00;;;7.63;;
56242;SDS011;42155;53.096;23.226;2022-12-29T12:25:59;15.18;;;7.72;;
56242;SDS011;42155;53.096;23.226;2022-12-29T12:28:11;16.60;;;7.30;;
56242;SDS011;42155;53.096;23.226;2022-12-29T12:30:20;14.20;;;6.90;;
56242;SDS011;42155;53.096;23.226;2022-12-29T12:34:44;13.40;;;7.00;;
56242;SDS011;42155;53.096;23.226;2022-12-29T12:36:53;20.00;;;8.20;;
56242;SDS011;42155;53.096;23.226;2022-12-29T12:43:24;16.95;;;8.25;;
56242;SDS011;42155;53.096;23.226;2022-12-29T12:48:04;18.35;;;8.40;;
56242;SDS011;42155;53.096;23.226;2022-12-29T12:50:32;19.63;;;8.25;;
56242;SDS011;42155;53.096;23.226;2022-12-29T12:52:49;16.33;;;7.65;;
56242;SDS011;42155;53.096;23.226;2022-12-29T13:01:29;14.75;;;7.10;;
56242;SDS011;42155;53.096;23.226;2022-12-29T13:04:02;19.63;;;8.27;;
56242;SDS011;42155;53.096;23.226;2022-12-29T13:14:55;15.38;;;7.55;;
56242;SDS011;42155;53.096;23.226;2022-12-29T13:22:09;12.60;;;6.50;;
56242;SDS011;42155;53.096;23.226;2022-12-29T13:26:42;20.73;;;8.98;;
56242;SDS011;42155;53.096;23.226;2022-12-29T13:33:24;15.70;;;7.47;;
56242;SDS011;42155;53.096;23.226;2022-12-29T13:35:33;15.57;;;7.63;;
56242;SDS011;42155;53.096;23.226;2022-12-29T13:38:00;20.58;;;9.25;;
56242;SDS011;42155;53.096;23.226;2022-12-29T13:40:13;23.98;;;9.15;;
56242;SDS011;42155;53.096;23.226;2022-12-29T13:42:17;26.88;;;9.05;;
56242;SDS011;42155;53.096;23.226;2022-12-29T13:44:21;17.70;;;7.93;;
56242;SDS011;42155;53.096;23.226;2022-12-29T13:46:26;18.58;;;8.23;;
56242;SDS011;42155;53.096;23.226;2022-12-29T13:48:37;21.45;;;8.80;;
56242;SDS011;42155;53.096;23.226;2022-12-29T13:50:44;17.10;;;8.20;;